createdAt,value
2017-06-30T00:00:36.796Z,16.88
2017-06-30T00:01:36.476Z,16.83
2017-06-30T00:02:36.460Z,16.86
2017-06-30T00:03:36.451Z,16.93
2017-06-30T00:04:36.746Z,16.83
2017-06-30T00:05:36.424Z,16.85
2017-06-30T00:06:36.413Z,16.89
2017-06-30T00:07:36.453Z,16.8
2017-06-30T00:08:36.084Z,16.83
2017-06-30T00:09:36.693Z,16.88
2017-06-30T00:10:36.683Z,16.86
2017-06-30T00:11:36.046Z,16.85
2017-06-30T00:12:36.659Z,16.9
2017-06-30T00:13:36.346Z,16.85
2017-06-30T00:14:36.011Z,16.8
2017-06-30T00:15:36.001Z,16.77
2017-06-30T00:16:36.616Z,16.78
2017-06-30T00:17:36.603Z,16.77
2017-06-30T00:18:36.597Z,16.85
2017-06-30T00:19:36.588Z,16.86
2017-06-30T00:20:36.259Z,16.73
2017-06-30T00:21:35.991Z,16.8
2017-06-30T00:22:36.236Z,16.74
2017-06-30T00:23:36.228Z,16.68
2017-06-30T00:24:36.527Z,16.71
2017-06-30T00:25:36.206Z,16.67
2017-06-30T00:26:36.513Z,16.68
2017-06-30T00:27:36.182Z,16.62
2017-06-30T00:28:36.181Z,16.6
2017-06-30T00:29:36.473Z,16.58
2017-06-30T00:30:36.153Z,16.58
2017-06-30T00:31:35.825Z,16.58
2017-06-30T00:32:36.129Z,16.49
2017-06-30T00:33:36.116Z,16.52
2017-06-30T00:34:36.103Z,16.49
2017-06-30T00:35:36.091Z,16.53
2017-06-30T00:36:36.394Z,16.44
2017-06-30T00:37:35.765Z,16.49
2017-06-30T00:38:35.746Z,16.52
2017-06-30T00:39:36.362Z,16.49
2017-06-30T00:40:35.727Z,16.45
2017-06-30T00:41:36.343Z,16.48
2017-06-30T00:42:36.016Z,16.48
2017-06-30T00:43:36.319Z,16.45
2017-06-30T00:44:36.001Z,16.53
2017-06-30T00:45:35.983Z,16.45
2017-06-30T00:46:36.283Z,16.45
2017-06-30T00:47:36.275Z,16.49
2017-06-30T00:48:35.947Z,16.42
2017-06-30T00:49:35.941Z,16.48
2017-06-30T00:50:36.245Z,16.44
2017-06-30T00:51:35.917Z,16.41
2017-06-30T00:52:35.904Z,16.5
2017-06-30T00:53:36.207Z,16.37
2017-06-30T00:54:35.884Z,16.44
2017-06-30T00:55:36.191Z,16.41
2017-06-30T00:56:36.174Z,16.42
2017-06-30T00:57:35.536Z,16.37
2017-06-30T00:58:35.838Z,16.38
2017-06-30T00:59:36.141Z,16.38
2017-06-30T01:00:36.128Z,16.38
2017-06-30T01:01:36.116Z,16.33
2017-06-30T01:02:35.796Z,16.33
2017-06-30T01:03:35.784Z,16.31
2017-06-30T01:04:35.458Z,16.3
2017-06-30T01:05:35.761Z,16.3
2017-06-30T01:06:35.748Z,16.33
2017-06-30T01:07:35.426Z,16.31
2017-06-30T01:08:36.041Z,16.26
2017-06-30T01:09:35.405Z,16.26
2017-06-30T01:10:35.707Z,16.26
2017-06-30T01:11:35.694Z,16.25
2017-06-30T01:12:35.690Z,16.27
2017-06-30T01:13:35.677Z,16.31
2017-06-30T01:14:35.973Z,16.23
2017-06-30T01:15:35.690Z,16.3
2017-06-30T01:16:35.952Z,16.26
2017-06-30T01:17:35.970Z,16.3
2017-06-30T01:18:35.930Z,16.27
2017-06-30T01:19:35.914Z,16.35
2017-06-30T01:20:35.283Z,16.26
2017-06-30T01:21:35.582Z,16.25
2017-06-30T01:22:35.573Z,16.27
2017-06-30T01:23:35.868Z,16.23
2017-06-30T01:24:35.861Z,16.25
2017-06-30T01:25:35.541Z,16.2
2017-06-30T01:26:35.534Z,16.23
2017-06-30T01:27:35.831Z,16.23
2017-06-30T01:28:35.819Z,16.14
2017-06-30T01:29:35.806Z,16.18
2017-06-30T01:30:35.480Z,16.22
2017-06-30T01:31:35.834Z,16.11
2017-06-30T01:32:35.461Z,16.07
2017-06-30T01:33:35.762Z,16.11
2017-06-30T01:34:35.122Z,16.11
2017-06-30T01:35:35.738Z,16.15
2017-06-30T01:36:35.445Z,16.18
2017-06-30T01:37:35.721Z,16.09
2017-06-30T01:38:35.703Z,16.09
2017-06-30T01:39:35.385Z,16.15
2017-06-30T01:40:35.368Z,16.14
2017-06-30T01:41:35.669Z,16.16
2017-06-30T01:42:35.348Z,16.16
2017-06-30T01:43:35.023Z,16.12
2017-06-30T01:44:35.645Z,16.06
2017-06-30T01:45:36.234Z,16.06
2017-06-30T01:46:35.610Z,16.01
2017-06-30T01:47:34.981Z,16.01
2017-06-30T01:48:35.281Z,16.07
2017-06-30T01:49:35.269Z,16
2017-06-30T01:50:35.574Z,16.04
2017-06-30T01:51:35.249Z,16.01
2017-06-30T01:52:35.544Z,16
2017-06-30T01:53:35.536Z,15.96
2017-06-30T01:54:35.211Z,16
2017-06-30T01:55:35.512Z,16.07
2017-06-30T01:56:35.543Z,16.01
2017-06-30T01:57:35.177Z,16
2017-06-30T01:58:34.853Z,16.06
2017-06-30T01:59:34.843Z,16.04
2017-06-30T02:00:35.192Z,16.01
2017-06-30T02:01:35.133Z,16.09
2017-06-30T02:02:35.122Z,16.11
2017-06-30T02:03:35.418Z,16.06
2017-06-30T02:04:35.100Z,16.11
2017-06-30T02:05:35.400Z,16.09
2017-06-30T02:06:35.386Z,16.09
2017-06-30T02:07:35.065Z,16.09
2017-06-30T02:08:35.055Z,16.06
2017-06-30T02:09:35.404Z,16.11
2017-06-30T02:10:35.346Z,16.11
2017-06-30T02:11:35.335Z,16.11
2017-06-30T02:12:35.318Z,16.07
2017-06-30T02:13:35.000Z,16.11
2017-06-30T02:14:34.983Z,16
2017-06-30T02:15:34.971Z,16.01
2017-06-30T02:16:34.962Z,16.01
2017-06-30T02:17:34.953Z,16.07
2017-06-30T02:18:35.250Z,16.07
2017-06-30T02:19:35.240Z,16.04
2017-06-30T02:20:35.231Z,16.06
2017-06-30T02:21:35.220Z,16.06
2017-06-30T02:22:34.897Z,16.12
2017-06-30T02:23:35.206Z,16.11
2017-06-30T02:24:35.181Z,16.14
2017-06-30T02:25:34.857Z,16.11
2017-06-30T02:26:35.156Z,16.14
2017-06-30T02:27:34.838Z,16.12
2017-06-30T02:28:34.827Z,16.16
2017-06-30T02:29:34.812Z,16.15
2017-06-30T02:30:34.801Z,16.2
2017-06-30T02:31:34.791Z,16.18
2017-06-30T02:32:34.786Z,16.15
2017-06-30T02:33:35.129Z,16.16
2017-06-30T02:34:34.442Z,16.12
2017-06-30T02:35:34.746Z,16.15
2017-06-30T02:36:35.096Z,16.14
2017-06-30T02:37:34.728Z,16.18
2017-06-30T02:38:35.023Z,16.09
2017-06-30T02:39:35.012Z,16.12
2017-06-30T02:40:34.374Z,16.2
2017-06-30T02:41:34.990Z,16.2
2017-06-30T02:42:34.987Z,16.2
2017-06-30T02:43:34.965Z,16.18
2017-06-30T02:44:34.638Z,16.18
2017-06-30T02:45:34.633Z,16.2
2017-06-30T02:46:34.624Z,16.22
2017-06-30T02:47:34.925Z,16.27
2017-06-30T02:48:34.280Z,16.22
2017-06-30T02:49:34.588Z,16.3
2017-06-30T02:50:34.890Z,16.26
2017-06-30T02:51:34.875Z,16.34
2017-06-30T02:52:34.553Z,16.35
2017-06-30T02:53:34.542Z,16.3
2017-06-30T02:54:34.837Z,16.37
2017-06-30T02:55:34.827Z,16.26
2017-06-30T02:56:34.505Z,16.38
2017-06-30T02:57:34.239Z,16.3
2017-06-30T02:58:34.795Z,16.33
2017-06-30T02:59:34.468Z,16.38
2017-06-30T03:00:34.460Z,16.42
2017-06-30T03:01:34.446Z,16.37
2017-06-30T03:02:34.751Z,16.33
2017-06-30T03:03:34.111Z,16.38
2017-06-30T03:04:34.099Z,16.37
2017-06-30T03:05:34.718Z,16.38
2017-06-30T03:06:34.704Z,16.4
2017-06-30T03:07:34.383Z,16.45
2017-06-30T03:08:34.052Z,16.5
2017-06-30T03:09:34.670Z,16.48
2017-06-30T03:10:34.344Z,16.49
2017-06-30T03:11:34.651Z,16.5
2017-06-30T03:12:34.015Z,16.5
2017-06-30T03:13:34.625Z,16.45
2017-06-30T03:14:34.608Z,16.48
2017-06-30T03:15:34.287Z,16.48
2017-06-30T03:16:34.274Z,16.5
2017-06-30T03:17:34.261Z,16.48
2017-06-30T03:18:34.251Z,16.53
2017-06-30T03:19:34.552Z,16.56
2017-06-30T03:20:33.916Z,16.5
2017-06-30T03:21:34.222Z,16.48
2017-06-30T03:22:34.206Z,16.52
2017-06-30T03:23:34.197Z,16.58
2017-06-30T03:24:34.186Z,16.56
2017-06-30T03:25:34.170Z,16.52
2017-06-30T03:26:34.157Z,16.48
2017-06-30T03:27:34.459Z,16.52
2017-06-30T03:28:34.135Z,16.48
2017-06-30T03:29:34.443Z,16.45
2017-06-30T03:30:34.426Z,16.45
2017-06-30T03:31:33.839Z,16.58
2017-06-30T03:32:34.096Z,16.48
2017-06-30T03:33:34.405Z,16.44
2017-06-30T03:34:34.381Z,16.52
2017-06-30T03:35:34.369Z,16.5
2017-06-30T03:36:34.378Z,16.53
2017-06-30T03:37:34.042Z,16.48
2017-06-30T03:38:33.709Z,16.48
2017-06-30T03:39:34.325Z,16.48
2017-06-30T03:40:34.313Z,16.45
2017-06-30T03:41:33.677Z,16.45
2017-06-30T03:42:33.982Z,16.45
2017-06-30T03:43:34.279Z,16.48
2017-06-30T03:44:34.269Z,16.48
2017-06-30T03:45:34.270Z,16.45
2017-06-30T03:46:34.130Z,16.48
2017-06-30T03:47:33.918Z,16.53
2017-06-30T03:48:34.224Z,16.45
2017-06-30T03:49:34.211Z,16.41
2017-06-30T03:50:33.881Z,16.45
2017-06-30T03:51:34.186Z,16.53
2017-06-30T03:52:33.867Z,16.5
2017-06-30T03:53:33.851Z,16.59
2017-06-30T03:54:33.839Z,16.53
2017-06-30T03:55:33.517Z,16.45
2017-06-30T03:56:34.130Z,16.45
2017-06-30T03:57:34.116Z,16.5
2017-06-30T03:58:33.816Z,16.49
2017-06-30T03:59:34.101Z,16.53
2017-06-30T04:00:33.777Z,16.49
2017-06-30T04:01:34.069Z,16.5
2017-06-30T04:02:33.437Z,16.42
2017-06-30T04:03:33.786Z,16.42
2017-06-30T04:04:34.035Z,16.45
2017-06-30T04:05:33.715Z,16.48
2017-06-30T04:06:34.013Z,16.5
2017-06-30T04:07:33.691Z,16.45
2017-06-30T04:08:33.990Z,16.48
2017-06-30T04:09:33.982Z,16.5
2017-06-30T04:10:33.654Z,16.42
2017-06-30T04:11:33.644Z,16.42
2017-06-30T04:12:33.640Z,16.56
2017-06-30T04:13:33.938Z,16.5
2017-06-30T04:14:33.613Z,16.55
2017-06-30T04:15:33.909Z,16.52
2017-06-30T04:16:33.584Z,16.5
2017-06-30T04:17:33.572Z,16.48
2017-06-30T04:18:33.874Z,16.53
2017-06-30T04:19:33.240Z,16.52
2017-06-30T04:20:33.540Z,16.49
2017-06-30T04:21:33.838Z,16.59
2017-06-30T04:22:33.827Z,16.6
2017-06-30T04:23:33.503Z,16.59
2017-06-30T04:24:33.848Z,16.55
2017-06-30T04:25:33.482Z,16.63
2017-06-30T04:26:33.782Z,16.56
2017-06-30T04:27:33.141Z,16.6
2017-06-30T04:28:33.445Z,16.62
2017-06-30T04:29:33.434Z,16.71
2017-06-30T04:30:33.424Z,16.62
2017-06-30T04:31:33.723Z,16.7
2017-06-30T04:32:33.085Z,16.73
2017-06-30T04:33:33.388Z,16.74
2017-06-30T04:34:33.428Z,16.71
2017-06-30T04:35:33.363Z,16.74
2017-06-30T04:36:33.664Z,16.7
2017-06-30T04:37:33.343Z,16.73
2017-06-30T04:38:33.695Z,16.74
2017-06-30T04:39:33.630Z,16.7
2017-06-30T04:40:33.668Z,16.74
2017-06-30T04:41:33.612Z,16.73
2017-06-30T04:42:33.602Z,16.71
2017-06-30T04:43:33.586Z,16.74
2017-06-30T04:44:33.316Z,16.74
2017-06-30T04:45:33.252Z,16.73
2017-06-30T04:46:32.929Z,16.89
2017-06-30T04:47:33.226Z,16.7
2017-06-30T04:48:33.221Z,16.8
2017-06-30T04:49:33.204Z,16.8
2017-06-30T04:50:33.511Z,16.85
2017-06-30T04:51:33.178Z,16.86
2017-06-30T04:52:33.486Z,16.75
2017-06-30T04:53:32.848Z,16.86
2017-06-30T04:54:32.838Z,16.77
2017-06-30T04:55:32.869Z,16.78
2017-06-30T04:56:33.440Z,16.77
2017-06-30T04:57:33.114Z,16.89
2017-06-30T04:58:33.102Z,16.78
2017-06-30T04:59:32.785Z,16.89
2017-06-30T05:00:33.078Z,16.81
2017-06-30T05:01:32.755Z,16.88
2017-06-30T05:02:33.057Z,16.85
2017-06-30T05:03:32.735Z,16.81
2017-06-30T05:04:33.344Z,16.93
2017-06-30T05:05:33.022Z,16.96
2017-06-30T05:06:33.012Z,16.93
2017-06-30T05:07:33.003Z,16.9
2017-06-30T05:08:33.302Z,17.03
2017-06-30T05:09:32.664Z,17.1
2017-06-30T05:10:32.969Z,17.11
2017-06-30T05:11:32.956Z,17.07
2017-06-30T05:12:32.962Z,17.06
2017-06-30T05:13:32.622Z,17.1
2017-06-30T05:14:32.928Z,17.07
2017-06-30T05:15:32.913Z,17.1
2017-06-30T05:16:32.906Z,17.13
2017-06-30T05:17:32.939Z,17.15
2017-06-30T05:18:32.881Z,17.18
2017-06-30T05:19:33.181Z,17.18
2017-06-30T05:20:33.170Z,17.29
2017-06-30T05:21:33.163Z,17.33
2017-06-30T05:22:33.149Z,17.33
2017-06-30T05:23:33.185Z,17.28
2017-06-30T05:24:32.502Z,17.35
2017-06-30T05:25:33.119Z,17.44
2017-06-30T05:26:32.793Z,17.41
2017-06-30T05:27:33.098Z,17.41
2017-06-30T05:28:32.772Z,17.36
2017-06-30T05:29:32.760Z,17.5
2017-06-30T05:30:32.749Z,17.48
2017-06-30T05:31:32.742Z,17.55
2017-06-30T05:32:33.037Z,17.44
2017-06-30T05:33:32.765Z,17.54
2017-06-30T05:34:32.392Z,17.5
2017-06-30T05:35:32.695Z,17.46
2017-06-30T05:36:32.687Z,17.48
2017-06-30T05:37:32.677Z,17.53
2017-06-30T05:38:32.974Z,17.55
2017-06-30T05:39:32.655Z,17.57
2017-06-30T05:40:32.951Z,17.48
2017-06-30T05:41:32.634Z,17.55
2017-06-30T05:42:32.983Z,17.62
2017-06-30T05:43:32.623Z,17.66
2017-06-30T05:44:32.595Z,17.66
2017-06-30T05:45:32.587Z,17.66
2017-06-30T05:46:33.091Z,17.69
2017-06-30T05:47:32.561Z,17.64
2017-06-30T05:48:32.572Z,17.7
2017-06-30T05:49:32.546Z,17.71
2017-06-30T05:50:32.847Z,17.78
2017-06-30T05:51:32.525Z,17.71
2017-06-30T05:52:32.532Z,17.76
2017-06-30T05:53:32.815Z,17.71
2017-06-30T05:54:32.810Z,17.76
2017-06-30T05:55:32.797Z,17.74
2017-06-30T05:56:32.181Z,17.73
2017-06-30T05:57:32.464Z,17.7
2017-06-30T05:58:32.798Z,17.76
2017-06-30T05:59:32.130Z,17.74
2017-06-30T06:00:32.426Z,17.66
2017-06-30T06:01:32.735Z,17.54
2017-06-30T06:02:32.721Z,17.55
2017-06-30T06:03:32.399Z,17.54
2017-06-30T06:04:32.072Z,17.53
2017-06-30T06:05:32.372Z,17.41
2017-06-30T06:06:32.672Z,17.48
2017-06-30T06:07:32.679Z,17.47
2017-06-30T06:08:32.344Z,17.46
2017-06-30T06:09:32.642Z,17.44
2017-06-30T06:10:32.321Z,17.36
2017-06-30T06:11:32.325Z,17.3
2017-06-30T06:12:32.317Z,17.28
2017-06-30T06:13:31.973Z,17.3
2017-06-30T06:14:32.602Z,17.33
2017-06-30T06:15:32.576Z,17.32
2017-06-30T06:16:32.569Z,17.18
2017-06-30T06:17:31.930Z,17.2
2017-06-30T06:18:31.952Z,17.13
2017-06-30T06:19:32.292Z,17.11
2017-06-30T06:20:32.212Z,17.04
2017-06-30T06:21:32.198Z,17.03
2017-06-30T06:22:32.186Z,17.03
2017-06-30T06:23:32.487Z,17
2017-06-30T06:24:32.511Z,16.95
2017-06-30T06:25:32.151Z,16.96
2017-06-30T06:26:32.187Z,16.95
2017-06-30T06:27:32.134Z,16.89
2017-06-30T06:28:32.117Z,16.9
2017-06-30T06:29:32.423Z,16.85
2017-06-30T06:30:32.097Z,16.78
2017-06-30T06:31:32.399Z,16.77
2017-06-30T06:32:32.429Z,16.77
2017-06-30T06:33:32.378Z,16.83
2017-06-30T06:34:32.363Z,16.81
2017-06-30T06:35:32.052Z,16.88
2017-06-30T06:36:31.721Z,16.77
2017-06-30T06:37:31.707Z,16.83
2017-06-30T06:38:31.695Z,16.71
2017-06-30T06:39:31.682Z,16.78
2017-06-30T06:40:31.986Z,16.7
2017-06-30T06:41:31.982Z,16.81
2017-06-30T06:42:31.967Z,16.77
2017-06-30T06:43:31.968Z,16.75
2017-06-30T06:44:31.940Z,16.8
2017-06-30T06:45:31.933Z,16.8
2017-06-30T06:46:31.915Z,16.93
2017-06-30T06:47:31.596Z,16.88
2017-06-30T06:48:32.205Z,16.83
2017-06-30T06:49:32.198Z,16.95
2017-06-30T06:50:32.190Z,16.89
2017-06-30T06:51:31.861Z,16.93
2017-06-30T06:52:31.851Z,16.96
2017-06-30T06:53:31.523Z,16.93
2017-06-30T06:54:31.825Z,16.99
2017-06-30T06:55:31.496Z,16.95
2017-06-30T06:56:32.116Z,17.07
2017-06-30T06:57:32.115Z,17.06
2017-06-30T06:58:31.465Z,17.06
2017-06-30T06:59:31.769Z,17.13
2017-06-30T07:00:32.070Z,17.08
2017-06-30T07:01:31.749Z,17.1
2017-06-30T07:02:31.741Z,17.1
2017-06-30T07:03:31.724Z,17.17
2017-06-30T07:04:31.711Z,17.22
2017-06-30T07:05:31.700Z,17.18
2017-06-30T07:06:31.693Z,17.28
2017-06-30T07:07:31.997Z,17.35
2017-06-30T07:08:31.985Z,17.29
2017-06-30T07:09:31.348Z,17.32
2017-06-30T07:10:31.963Z,17.33
2017-06-30T07:11:31.640Z,17.43
2017-06-30T07:12:31.628Z,17.51
2017-06-30T07:13:31.618Z,17.46
2017-06-30T07:14:31.919Z,17.43
2017-06-30T07:15:31.597Z,17.53
2017-06-30T07:16:31.590Z,17.54
2017-06-30T07:17:31.573Z,17.67
2017-06-30T07:18:31.873Z,17.7
2017-06-30T07:19:31.240Z,17.74
2017-06-30T07:20:31.853Z,17.71
2017-06-30T07:21:31.532Z,17.84
2017-06-30T07:22:31.538Z,17.99
2017-06-30T07:23:31.824Z,17.91
2017-06-30T07:24:31.814Z,18.03
2017-06-30T07:25:31.812Z,18.06
2017-06-30T07:26:31.480Z,18.07
2017-06-30T07:27:31.471Z,18.12
2017-06-30T07:28:31.460Z,18.15
2017-06-30T07:29:31.458Z,18.13
2017-06-30T07:30:31.439Z,18.18
2017-06-30T07:31:31.430Z,18.19
2017-06-30T07:32:31.735Z,18.24
2017-06-30T07:33:31.096Z,18.39
2017-06-30T07:34:31.714Z,18.33
2017-06-30T07:35:31.387Z,18.4
2017-06-30T07:36:31.067Z,18.42
2017-06-30T07:37:31.371Z,18.4
2017-06-30T07:38:31.676Z,18.4
2017-06-30T07:39:31.356Z,18.42
2017-06-30T07:40:31.653Z,18.49
2017-06-30T07:41:31.022Z,18.57
2017-06-30T07:42:31.683Z,18.58
2017-06-30T07:43:31.311Z,18.59
2017-06-30T07:44:31.307Z,18.64
2017-06-30T07:45:31.296Z,18.61
2017-06-30T07:46:31.500Z,18.7
2017-06-30T07:47:31.278Z,18.57
2017-06-30T07:48:31.580Z,18.58
2017-06-30T07:49:31.252Z,18.77
2017-06-30T07:50:31.556Z,18.79
2017-06-30T07:51:31.257Z,18.79
2017-06-30T07:52:31.226Z,18.67
2017-06-30T07:53:31.537Z,18.65
2017-06-30T07:54:31.520Z,18.65
2017-06-30T07:55:31.217Z,18.67
2017-06-30T07:56:31.507Z,18.62
2017-06-30T07:57:31.198Z,18.76
2017-06-30T07:58:31.491Z,18.74
2017-06-30T07:59:31.163Z,18.91
2017-06-30T08:00:31.470Z,18.87
2017-06-30T08:01:31.469Z,18.9
2017-06-30T08:02:31.449Z,18.83
2017-06-30T08:03:31.451Z,18.8
2017-06-30T08:04:31.119Z,18.9
2017-06-30T08:05:31.106Z,18.97
2017-06-30T08:06:31.117Z,18.99
2017-06-30T08:07:31.413Z,19.1
2017-06-30T08:08:31.133Z,19.31
2017-06-30T08:09:31.384Z,19.39
2017-06-30T08:10:30.750Z,19.36
2017-06-30T08:11:31.372Z,19.54
2017-06-30T08:12:30.742Z,19.65
2017-06-30T08:13:31.054Z,19.88
2017-06-30T08:14:31.035Z,19.84
2017-06-30T08:15:31.017Z,19.79
2017-06-30T08:16:31.016Z,19.87
2017-06-30T08:17:31.321Z,19.68
2017-06-30T08:18:31.316Z,19.63
2017-06-30T08:19:30.985Z,19.66
2017-06-30T08:20:31.290Z,19.57
2017-06-30T08:21:30.969Z,19.7
2017-06-30T08:22:30.967Z,19.73
2017-06-30T08:23:31.267Z,19.72
2017-06-30T08:24:30.953Z,19.73
2017-06-30T08:25:30.935Z,19.69
2017-06-30T08:26:30.923Z,19.53
2017-06-30T08:27:31.232Z,19.43
2017-06-30T08:28:30.907Z,19.4
2017-06-30T08:29:30.897Z,19.36
2017-06-30T08:30:30.894Z,19.32
2017-06-30T08:31:30.891Z,19.33
2017-06-30T08:32:30.878Z,19.38
2017-06-30T08:33:31.187Z,19.35
2017-06-30T08:34:30.862Z,19.36
2017-06-30T08:35:30.850Z,19.33
2017-06-30T08:36:30.843Z,19.36
2017-06-30T08:37:30.848Z,19.36
2017-06-30T08:38:30.523Z,19.35
2017-06-30T08:39:30.511Z,19.46
2017-06-30T08:40:30.811Z,19.69
2017-06-30T08:41:30.807Z,19.84
2017-06-30T08:42:30.796Z,19.88
2017-06-30T08:43:31.092Z,19.86
2017-06-30T08:44:31.091Z,19.84
2017-06-30T08:45:31.096Z,19.94
2017-06-30T08:46:30.756Z,20.08
2017-06-30T08:47:31.063Z,20.06
2017-06-30T08:48:31.056Z,20.23
2017-06-30T08:49:30.732Z,20.33
2017-06-30T08:50:30.746Z,20.3
2017-06-30T08:51:30.720Z,20.31
2017-06-30T08:52:31.027Z,20.25
2017-06-30T08:53:30.706Z,20.27
2017-06-30T08:54:31.014Z,20.23
2017-06-30T08:55:30.696Z,20.13
2017-06-30T08:56:30.682Z,20.03
2017-06-30T08:57:30.363Z,19.97
2017-06-30T08:58:30.672Z,19.94
2017-06-30T08:59:30.660Z,19.88
2017-06-30T09:00:30.974Z,19.87
2017-06-30T09:01:30.954Z,19.87
2017-06-30T09:02:30.324Z,19.95
2017-06-30T09:03:30.939Z,19.93
2017-06-30T09:04:30.624Z,19.97
2017-06-30T09:05:30.630Z,20.12
2017-06-30T09:06:30.295Z,20.18
2017-06-30T09:07:30.911Z,20.18
2017-06-30T09:08:30.587Z,20.28
2017-06-30T09:09:30.898Z,20.24
2017-06-30T09:10:30.572Z,20.27
2017-06-30T09:11:30.563Z,20.27
2017-06-30T09:12:30.553Z,20.28
2017-06-30T09:13:30.867Z,20.27
2017-06-30T09:14:30.538Z,20.27
2017-06-30T09:15:30.844Z,20.23
2017-06-30T09:16:30.527Z,20.24
2017-06-30T09:17:30.829Z,20.18
2017-06-30T09:18:30.229Z,20.13
2017-06-30T09:19:30.552Z,20.08
2017-06-30T09:20:30.492Z,19.98
2017-06-30T09:21:30.800Z,19.97
2017-06-30T09:22:30.166Z,19.95
2017-06-30T09:23:30.788Z,19.93
2017-06-30T09:24:30.780Z,19.91
2017-06-30T09:25:30.767Z,20
2017-06-30T09:26:30.759Z,19.87
2017-06-30T09:27:30.439Z,19.9
2017-06-30T09:28:30.738Z,19.9
2017-06-30T09:29:30.731Z,19.91
2017-06-30T09:30:30.727Z,20
2017-06-30T09:31:30.404Z,20.06
2017-06-30T09:32:30.708Z,20.16
2017-06-30T09:33:30.387Z,20.2
2017-06-30T09:34:30.696Z,20.28
2017-06-30T09:35:30.372Z,20.33
2017-06-30T09:36:30.364Z,20.38
2017-06-30T09:37:30.681Z,20.25
2017-06-30T09:38:30.348Z,20.35
2017-06-30T09:39:30.361Z,20.38
2017-06-30T09:40:30.078Z,20.39
2017-06-30T09:41:30.640Z,20.64
2017-06-30T09:42:30.318Z,20.79
2017-06-30T09:43:30.623Z,20.79
2017-06-30T09:44:30.616Z,20.89
2017-06-30T09:45:29.984Z,20.74
2017-06-30T09:46:30.825Z,20.84
2017-06-30T09:47:30.285Z,21.06
2017-06-30T09:48:30.281Z,21.13
2017-06-30T09:49:30.270Z,21.08
2017-06-30T09:50:30.258Z,21.2
2017-06-30T09:51:30.567Z,21.2
2017-06-30T09:52:30.262Z,21.23
2017-06-30T09:53:30.560Z,21.11
2017-06-30T09:54:30.553Z,21.04
2017-06-30T09:55:30.551Z,21.04
2017-06-30T09:56:30.216Z,20.96
2017-06-30T09:57:30.525Z,21.06
2017-06-30T09:58:30.206Z,21.08
2017-06-30T09:59:30.200Z,21.24
2017-06-30T10:00:30.196Z,21.21
2017-06-30T10:01:30.202Z,21.34
2017-06-30T10:02:30.182Z,21.26
2017-06-30T10:03:30.186Z,21.59
2017-06-30T10:04:30.170Z,21.41
2017-06-30T10:05:30.160Z,21.32
2017-06-30T10:06:30.164Z,21.27
2017-06-30T10:07:29.840Z,21.2
2017-06-30T10:08:30.457Z,21.21
2017-06-30T10:09:30.135Z,21.21
2017-06-30T10:10:30.151Z,21.35
2017-06-30T10:11:30.127Z,21.27
2017-06-30T10:12:30.125Z,21.26
2017-06-30T10:13:30.423Z,21.26
2017-06-30T10:14:29.795Z,21.3
2017-06-30T10:15:30.423Z,21.36
2017-06-30T10:16:30.404Z,21.29
2017-06-30T10:17:30.098Z,21.5
2017-06-30T10:18:30.085Z,21.82
2017-06-30T10:19:30.446Z,22.1
2017-06-30T10:20:30.386Z,21.98
2017-06-30T10:21:30.379Z,22.07
2017-06-30T10:22:30.266Z,21.91
2017-06-30T10:23:30.367Z,22.04
2017-06-30T10:24:30.366Z,21.95
2017-06-30T10:25:30.355Z,21.98
2017-06-30T10:26:30.348Z,22.09
2017-06-30T10:27:30.362Z,22.27
2017-06-30T10:28:30.047Z,22.69
2017-06-30T10:29:30.039Z,23.02
2017-06-30T10:30:30.334Z,23.6
2017-06-30T10:31:30.347Z,23.97
2017-06-30T10:32:30.323Z,24.14
2017-06-30T10:33:30.026Z,24.32
2017-06-30T10:34:29.998Z,24.47
2017-06-30T10:35:30.310Z,24.35
2017-06-30T10:36:29.991Z,24.17
2017-06-30T10:37:29.678Z,23.77
2017-06-30T10:38:30.299Z,23.95
2017-06-30T10:39:30.304Z,24.17
2017-06-30T10:40:29.980Z,23.79
2017-06-30T10:41:29.663Z,24.01
2017-06-30T10:42:30.282Z,24.04
2017-06-30T10:43:29.975Z,24.2
2017-06-30T10:44:30.284Z,24.22
2017-06-30T10:45:29.968Z,24.44
2017-06-30T10:46:30.276Z,24.35
2017-06-30T10:47:29.961Z,24.44
2017-06-30T10:48:30.294Z,24.47
2017-06-30T10:49:29.649Z,24.56
2017-06-30T10:50:29.954Z,24.56
2017-06-30T10:51:29.957Z,24.54
2017-06-30T10:52:30.287Z,24.45
2017-06-30T10:53:29.635Z,24.49
2017-06-30T10:54:29.955Z,24.68
2017-06-30T10:55:30.272Z,24.57
2017-06-30T10:56:30.259Z,24.85
2017-06-30T10:57:29.939Z,25.06
2017-06-30T10:58:29.631Z,25.25
2017-06-30T10:59:30.256Z,25.05
2017-06-30T11:00:30.265Z,25.09
2017-06-30T11:01:29.938Z,24.91
2017-06-30T11:02:30.245Z,24.87
2017-06-30T11:03:30.249Z,25.07
2017-06-30T11:04:29.933Z,24.77
2017-06-30T11:05:30.244Z,24.34
2017-06-30T11:06:29.927Z,23.86
2017-06-30T11:07:30.244Z,23.77
2017-06-30T11:08:30.235Z,23.87
2017-06-30T11:09:30.239Z,24.17
2017-06-30T11:10:30.234Z,24.34
2017-06-30T11:11:30.234Z,24.37
2017-06-30T11:12:29.918Z,24.44
2017-06-30T11:13:29.921Z,24.57
2017-06-30T11:14:29.598Z,24.95
2017-06-30T11:15:29.962Z,25.09
2017-06-30T11:16:29.914Z,25.02
2017-06-30T11:17:30.228Z,24.77
2017-06-30T11:18:29.594Z,24.67
2017-06-30T11:19:29.913Z,24.73
2017-06-30T11:20:30.220Z,24.54
2017-06-30T11:21:29.904Z,24.5
2017-06-30T11:22:30.217Z,24.5
2017-06-30T11:23:29.592Z,24.37
2017-06-30T11:24:29.900Z,24.38
2017-06-30T11:25:29.897Z,24.41
2017-06-30T11:26:29.900Z,23.9
2017-06-30T11:27:30.230Z,23.58
2017-06-30T11:28:29.893Z,23.46
2017-06-30T11:29:29.893Z,23.12
2017-06-30T11:30:30.262Z,22.86
2017-06-30T11:31:29.571Z,22.72
2017-06-30T11:32:30.196Z,22.53
2017-06-30T11:33:29.880Z,22.52
2017-06-30T11:34:29.884Z,22.49
2017-06-30T11:35:29.558Z,22.49
2017-06-30T11:36:29.872Z,22.35
2017-06-30T11:37:29.864Z,22.37
2017-06-30T11:38:30.186Z,22.46
2017-06-30T11:39:29.856Z,22.37
2017-06-30T11:40:29.853Z,22.46
2017-06-30T11:41:29.847Z,22.49
2017-06-30T11:42:30.154Z,22.52
2017-06-30T11:43:30.160Z,22.62
2017-06-30T11:44:29.525Z,22.62
2017-06-30T11:45:29.516Z,22.68
2017-06-30T11:46:29.712Z,23.01
2017-06-30T11:47:29.815Z,23.05
2017-06-30T11:48:30.134Z,23.02
2017-06-30T11:49:30.154Z,23.07
2017-06-30T11:50:29.803Z,22.96
2017-06-30T11:51:29.796Z,22.87
2017-06-30T11:52:29.488Z,22.8
2017-06-30T11:53:30.124Z,22.74
2017-06-30T11:54:29.474Z,22.64
2017-06-30T11:55:30.097Z,22.47
2017-06-30T11:56:29.778Z,22.35
2017-06-30T11:57:29.458Z,22.31
2017-06-30T11:58:29.497Z,22.16
2017-06-30T11:59:29.766Z,22.23
2017-06-30T12:00:29.758Z,22.2
2017-06-30T12:01:30.063Z,22.37
2017-06-30T12:02:29.751Z,22.35
2017-06-30T12:03:30.058Z,22.35
2017-06-30T12:04:30.066Z,22.35
2017-06-30T12:05:29.414Z,22.41
2017-06-30T12:06:29.720Z,22.44
2017-06-30T12:07:29.721Z,22.8
2017-06-30T12:08:29.718Z,23.04
2017-06-30T12:09:29.714Z,23.09
2017-06-30T12:10:29.702Z,23.04
2017-06-30T12:11:29.701Z,22.87
2017-06-30T12:12:29.693Z,22.8
2017-06-30T12:13:29.996Z,22.6
2017-06-30T12:14:29.678Z,22.47
2017-06-30T12:15:29.683Z,22.28
2017-06-30T12:16:29.675Z,22.09
2017-06-30T12:17:29.666Z,21.94
2017-06-30T12:18:29.979Z,21.88
2017-06-30T12:19:29.655Z,21.81
2017-06-30T12:20:29.958Z,21.81
2017-06-30T12:21:29.648Z,21.61
2017-06-30T12:22:29.641Z,21.48
2017-06-30T12:23:29.320Z,21.46
2017-06-30T12:24:29.661Z,21.57
2017-06-30T12:25:29.620Z,21.53
2017-06-30T12:26:29.613Z,21.46
2017-06-30T12:27:29.610Z,21.53
2017-06-30T12:28:29.914Z,21.51
2017-06-30T12:29:29.597Z,21.53
2017-06-30T12:30:29.588Z,21.57
2017-06-30T12:31:29.894Z,21.56
2017-06-30T12:32:29.885Z,21.6
2017-06-30T12:33:29.887Z,21.56
2017-06-30T12:34:29.565Z,21.56
2017-06-30T12:35:29.574Z,21.59
2017-06-30T12:36:29.546Z,21.63
2017-06-30T12:37:29.541Z,21.61
2017-06-30T12:38:29.849Z,21.6
2017-06-30T12:39:29.532Z,21.59
2017-06-30T12:40:29.893Z,21.61
2017-06-30T12:41:29.848Z,21.53
2017-06-30T12:42:29.506Z,21.38
2017-06-30T12:43:29.501Z,21.35
2017-06-30T12:44:29.496Z,21.26
2017-06-30T12:45:29.487Z,21.09
2017-06-30T12:46:29.478Z,20.96
2017-06-30T12:47:29.161Z,20.95
2017-06-30T12:48:29.466Z,20.81
2017-06-30T12:49:29.461Z,20.87
2017-06-30T12:50:29.453Z,20.84
2017-06-30T12:51:29.450Z,20.83
2017-06-30T12:52:29.751Z,20.83
2017-06-30T12:53:29.741Z,20.76
2017-06-30T12:54:29.429Z,20.87
2017-06-30T12:55:29.103Z,20.95
2017-06-30T12:56:29.410Z,21.04